Atlanta, Georgia
Traffic Map
Current Weather Conditions
Atlanta, Georgia
Broken Clouds
Broken Clouds
56°
Feels Like: 56°
Wind Chill: 56° Ceiling: 13000
Heat Index: 56° Visibility: 10mi
Dew Point: 52° Wind: 0mph
Humidity: 87% Direction: ° ()
Pressure: 30.04in Gusts: 0mph
Raw Report DataKATL 191252Z 00000KT 10SM BKN130 13/11 A3004 RMK AO2 SLP171 VIRGA NE T01330111
Traffic Incident Summary
Active as of:
Severity:
Category:
InformationThere was an issue retrieving the traffic information for this location. Please try a different location or try again shortly.
Advertisements
Track Severe Weather on mobile